Time;durP1;ratioP1;P1;durP2;ratioP2;P2;SDS_P1;SDS_P2;PMS_P1;PMS_P2;Temp;Humidity;BMP_temperature;BMP_pressure;BME280_temperature;BME280_humidity;BME280_pressure;Samples;Min_cycle;Max_cycle;Signal;HPM_P1;HPM_P2
2023/03/18 00:02:06;;;;;;;2.87;1.80;;;;;;;11.57;70.62;100690.28;5055371;28;20666;-87
2023/03/18 00:04:32;;;;;;;1.97;1.70;;;;;;;11.55;71.81;100676.47;5055787;28;20028;-87
2023/03/18 00:06:57;;;;;;;1.87;1.77;;;;;;;11.52;71.74;100667.88;5055301;28;20021;-87
2023/03/18 00:09:23;;;;;;;1.53;1.43;;;;;;;11.50;71.87;100672.25;5055005;28;20066;-87
2023/03/18 00:11:48;;;;;;;2.07;1.87;;;;;;;11.51;71.25;100680.00;5055667;28;20099;-87
2023/03/18 00:14:14;;;;;;;2.03;1.90;;;;;;;11.50;71.59;100678.28;5055449;28;20116;-88
2023/03/18 00:16:39;;;;;;;2.65;2.05;;;;;;;11.47;71.23;100683.59;5055298;28;20021;-87
2023/03/18 00:19:05;;;;;;;2.73;2.00;;;;;;;11.47;71.45;100685.31;5055371;28;20029;-87
2023/03/18 00:21:31;;;;;;;2.77;2.20;;;;;;;11.46;70.38;100681.88;5055157;28;20104;-86
2023/03/18 00:23:57;;;;;;;3.53;2.30;;;;;;;11.49;71.38;100686.13;5054962;28;20040;-87
2023/03/18 00:26:24;;;;;;;2.60;1.98;;;;;;;11.49;71.63;100692.19;5055074;28;20041;-88
2023/03/18 00:28:50;;;;;;;2.35;1.80;;;;;;;11.48;71.58;100693.09;5054437;28;20087;-87
2023/03/18 00:31:16;;;;;;;2.00;1.73;;;;;;;11.47;71.50;100698.31;5055400;28;20485;-87
2023/03/18 00:33:44;;;;;;;2.70;1.90;;;;;;;11.42;71.42;100686.28;5055231;28;20284;-88
2023/03/18 00:36:12;;;;;;;2.10;1.90;;;;;;;11.45;71.23;100698.34;5054309;28;20384;-88
2023/03/18 00:38:38;;;;;;;2.35;2.10;;;;;;;11.44;71.37;100707.03;5054116;28;20028;-87
2023/03/18 00:41:10;;;;;;;3.10;2.13;;;;;;;11.42;71.58;100714.00;5054733;28;20079;-87
2023/03/18 00:43:51;;;;;;;2.70;2.20;;;;;;;11.39;71.71;100711.44;5054836;28;20427;-88
2023/03/18 00:46:19;;;;;;;2.20;2.00;;;;;;;11.35;73.06;100712.44;5054151;28;20473;-87
2023/03/18 00:48:45;;;;;;;2.00;1.80;;;;;;;11.33;72.63;100711.59;5054770;28;20024;-88
2023/03/18 00:51:13;;;;;;;2.20;2.00;;;;;;;11.30;72.24;100715.13;5054320;28;20084;-87
2023/03/18 00:53:42;;;;;;;1.90;1.80;;;;;;;11.30;72.42;100714.25;5054486;28;20028;-88
2023/03/18 00:56:07;;;;;;;2.78;1.92;;;;;;;11.27;71.27;100723.81;5054659;28;20079;-87
2023/03/18 00:58:33;;;;;;;3.03;2.40;;;;;;;11.26;71.96;100716.91;5053760;28;20017;-88
2023/03/18 01:00:59;;;;;;;3.35;2.47;;;;;;;11.24;72.39;100718.69;5054439;28;20056;-88
2023/03/18 01:03:25;;;;;;;3.57;2.50;;;;;;;11.25;72.60;100722.13;5054626;28;20068;-88
2023/03/18 01:05:52;;;;;;;3.03;2.30;;;;;;;11.16;72.42;100702.38;5054103;28;20393;-87
2023/03/18 01:08:18;;;;;;;3.30;2.42;;;;;;;11.19;73.38;100707.53;5054788;28;20100;-87
2023/03/18 01:10:43;;;;;;;2.83;2.20;;;;;;;11.18;72.82;100703.22;5054815;28;20108;-86
2023/03/18 01:13:08;;;;;;;2.10;1.90;;;;;;;11.16;73.28;100710.19;5053989;28;20052;-87
2023/03/18 01:15:36;;;;;;;4.07;2.13;;;;;;;11.16;73.12;100710.19;5054451;28;20051;-88
2023/03/18 01:18:02;;;;;;;3.25;2.47;;;;;;;11.15;72.42;100716.25;5054014;28;20025;-88
2023/03/18 01:20:28;;;;;;;4.80;3.00;;;;;;;11.14;72.84;100711.97;5054596;28;20057;-87
2023/03/18 01:22:53;;;;;;;7.37;3.50;;;;;;;11.14;73.30;100714.56;5054555;28;20358;-87
2023/03/18 01:25:19;;;;;;;6.50;3.30;;;;;;;11.13;74.52;100705.06;5054012;28;20085;-88
2023/03/18 01:27:44;;;;;;;8.03;3.63;;;;;;;11.12;73.44;100705.94;5054138;28;20036;-88
2023/03/18 01:30:12;;;;;;;6.87;3.50;;;;;;;11.13;73.60;100711.09;5054679;28;20076;-88
2023/03/18 01:32:37;;;;;;;6.45;3.50;;;;;;;11.13;73.74;100707.66;5054203;28;20364;-88
2023/03/18 01:35:03;;;;;;;6.60;3.63;;;;;;;11.23;73.75;100704.00;5054014;28;20082;-88
2023/03/18 01:37:30;;;;;;;8.63;4.25;;;;;;;11.16;76.00;100709.34;5054461;28;20477;-89
2023/03/18 01:39:55;;;;;;;10.52;5.38;;;;;;;11.17;76.48;100714.50;5054402;28;20025;-89
2023/03/18 01:42:21;;;;;;;11.20;5.27;;;;;;;11.12;76.92;100708.53;5054872;28;20024;-89
2023/03/18 01:44:47;;;;;;;10.77;5.13;;;;;;;11.09;75.79;100709.44;5053984;28;20017;-88
2023/03/18 01:47:15;;;;;;;9.40;4.90;;;;;;;11.06;76.63;100708.66;5054119;28;20100;-89
2023/03/18 01:49:46;;;;;;;10.20;5.05;;;;;;;11.02;76.85;100701.81;5054016;28;20053;-88
2023/03/18 01:52:16;;;;;;;10.52;4.97;;;;;;;11.06;77.35;100709.53;5054698;28;20032;-89
2023/03/18 01:54:46;;;;;;;14.40;6.10;;;;;;;10.97;78.45;100705.34;5054481;28;20043;-89
2023/03/18 01:57:13;;;;;;;14.05;6.00;;;;;;;10.97;78.74;100709.69;5054404;28;20032;-89
2023/03/18 01:59:40;;;;;;;;;;;;;;;10.92;82.49;100704.56;5054679;28;20346;-89
2023/03/18 02:02:09;;;;;;;12.30;5.88;;;;;;;10.86;80.43;100712.50;5053526;28;19932;-89
2023/03/18 02:04:42;;;;;;;9.18;5.15;;;;;;;10.77;80.49;100715.25;5054344;28;20021;-89
2023/03/18 02:07:20;;;;;;;11.52;5.68;;;;;;;10.75;80.58;100714.44;5053942;28;20021;-89
2023/03/18 02:09:47;;;;;;;10.50;4.85;;;;;;;10.68;81.76;100708.50;5054684;28;20062;-88
2023/03/18 02:12:17;;;;;;;8.90;4.50;;;;;;;10.69;82.72;100710.19;5061537;28;20028;-89
2023/03/18 02:14:43;;;;;;;6.97;3.80;;;;;;;10.65;83.15;100704.22;5054036;28;20041;-89
2023/03/18 02:17:14;;;;;;;6.35;3.80;;;;;;;10.62;82.87;100701.66;5054362;28;20021;-89
2023/03/18 02:19:57;;;;;;;6.78;3.92;;;;;;;10.63;81.03;100711.16;5053897;28;20017;-89
2023/03/18 02:22:38;;;;;;;10.68;4.60;;;;;;;10.59;82.47;100708.66;5054527;28;20452;-89
2023/03/18 02:25:26;;;;;;;8.90;4.28;;;;;;;10.59;82.31;100713.84;5054085;28;20093;-89
2023/03/18 02:28:00;;;;;;;6.03;3.90;;;;;;;10.57;83.72;100715.59;5054270;28;20047;-89
2023/03/18 02:30:38;;;;;;;9.20;4.30;;;;;;;10.54;83.18;100718.25;5054442;28;20035;-89
2023/03/18 02:33:06;;;;;;;9.95;4.88;;;;;;;10.53;85.68;100717.41;5054097;28;20040;-89
2023/03/18 02:35:34;;;;;;;8.50;4.47;;;;;;;10.51;84.83;100719.16;5054027;28;20029;-89
2023/03/18 02:38:01;;;;;;;7.43;4.07;;;;;;;10.45;84.23;100720.13;5053722;28;20071;-88
2023/03/18 02:40:29;;;;;;;7.70;4.13;;;;;;;10.50;88.38;100736.47;5054117;28;20185;-89
2023/03/18 02:43:37;;;;;;;6.05;3.70;;;;;;;10.47;88.75;100727.91;5053236;28;20032;-88
2023/03/18 02:46:16;;;;;;;6.63;3.78;;;;;;;10.45;86.12;100737.44;5053253;28;20036;-88
2023/03/18 02:48:44;;;;;;;9.30;3.95;;;;;;;10.42;84.71;100746.09;5053805;28;20033;-88
2023/03/18 02:51:12;;;;;;;8.68;4.28;;;;;;;10.42;86.28;100743.50;5052980;28;20025;-88
2023/03/18 02:53:37;;;;;;;9.38;4.43;;;;;;;10.39;86.57;100737.53;5052971;28;20021;-88
2023/03/18 02:56:04;;;;;;;10.67;5.07;;;;;;;10.38;85.85;100741.00;5052731;28;20075;-88
2023/03/18 02:58:29;;;;;;;7.88;4.35;;;;;;;10.36;84.98;100741.00;5052627;28;20071;-87
2023/03/18 03:00:56;;;;;;;8.63;4.47;;;;;;;10.33;86.19;100741.91;5054750;28;20021;-87
2023/03/18 03:03:22;;;;;;;10.02;4.45;;;;;;;10.36;86.11;100753.97;5056893;28;20469;-87
2023/03/18 03:05:48;;;;;;;9.25;4.55;;;;;;;10.36;86.44;100756.56;5056736;28;20032;-88
2023/03/18 03:08:14;;;;;;;9.17;4.30;;;;;;;10.34;85.49;100759.19;5056707;28;20025;-88
2023/03/18 03:10:40;;;;;;;8.18;4.10;;;;;;;10.34;87.53;100755.72;5056171;28;20024;-88
2023/03/18 03:13:06;;;;;;;9.37;4.70;;;;;;;10.34;85.96;100761.78;5056674;28;20120;-88
2023/03/18 03:15:32;;;;;;;7.68;4.28;;;;;;;10.32;86.47;100766.13;5057295;28;20017;-88
2023/03/18 03:17:57;;;;;;;8.93;4.37;;;;;;;10.35;87.51;100765.22;5056684;28;20029;-88
2023/03/18 03:20:23;;;;;;;8.93;4.60;;;;;;;10.34;91.29;100769.56;5057413;28;20029;-88
2023/03/18 03:22:49;;;;;;;7.33;4.10;;;;;;;10.31;88.72;100768.72;5056510;28;20028;-88
2023/03/18 03:25:16;;;;;;;6.97;3.93;;;;;;;10.30;91.28;100775.69;5056290;28;20035;-88
2023/03/18 03:27:42;;;;;;;6.93;3.92;;;;;;;10.26;87.97;100761.03;5056471;28;20068;-88
2023/03/18 03:30:11;;;;;;;6.97;3.80;;;;;;;10.28;92.08;100769.66;5056832;28;20104;-88
2023/03/18 03:32:37;;;;;;;7.97;4.20;;;;;;;10.27;89.94;100765.34;5056041;28;20036;-88
2023/03/18 03:35:04;;;;;;;6.73;3.80;;;;;;;10.24;89.83;100761.94;5056200;28;20025;-88
2023/03/18 03:37:29;;;;;;;7.40;4.03;;;;;;;10.24;91.17;100770.59;5056616;28;20279;-87
2023/03/18 03:39:54;;;;;;;5.27;3.47;;;;;;;10.22;89.71;100769.75;5055769;28;20033;-88
2023/03/18 03:42:20;;;;;;;5.37;3.20;;;;;;;10.24;90.39;100775.78;5055931;28;20025;-88
2023/03/18 03:44:46;;;;;;;4.00;3.10;;;;;;;10.23;90.83;100774.06;5055773;28;20024;-87
2023/03/18 03:47:11;;;;;;;3.10;2.50;;;;;;;10.20;90.51;100768.91;5056247;28;20036;-88
2023/03/18 03:49:37;;;;;;;3.77;2.70;;;;;;;10.22;90.34;100772.34;5056530;28;20621;-88
2023/03/18 03:52:03;;;;;;;4.03;2.70;;;;;;;10.24;89.18;100772.31;5056182;28;20071;-87
2023/03/18 03:54:28;;;;;;;6.50;3.60;;;;;;;10.26;88.55;100779.19;5055951;28;20032;-87
2023/03/18 03:56:53;;;;;;;6.07;3.60;;;;;;;10.24;88.78;100778.38;5055308;28;20029;-88
2023/03/18 03:59:19;;;;;;;6.03;3.60;;;;;;;10.26;89.68;100779.19;5055818;28;20044;-87
2023/03/18 04:01:45;;;;;;;5.50;3.30;;;;;;;10.26;90.29;100781.78;5054714;28;20108;-87
2023/03/18 04:04:10;;;;;;;5.40;3.60;;;;;;;10.25;88.74;100774.03;5055421;28;20020;-87
2023/03/18 04:06:35;;;;;;;6.67;3.50;;;;;;;10.24;89.55;100780.97;5055008;28;20037;-86
2023/03/18 04:09:02;;;;;;;4.90;3.30;;;;;;;10.24;89.40;100787.88;5055704;28;20045;-87
2023/03/18 04:11:28;;;;;;;10.30;5.00;;;;;;;10.26;88.26;100778.34;5054832;28;20032;-87
2023/03/18 04:13:54;;;;;;;10.25;5.22;;;;;;;10.24;88.86;100782.69;5054342;28;20029;-87
2023/03/18 04:16:19;;;;;;;8.40;4.67;;;;;;;10.23;89.34;100786.16;5055121;28;20468;-87
2023/03/18 04:18:44;;;;;;;8.77;4.57;;;;;;;10.22;90.17;100787.91;5055413;28;20025;-88
2023/03/18 04:21:10;;;;;;;8.77;4.37;;;;;;;10.20;90.88;100785.31;5054986;28;20029;-87
2023/03/18 04:23:36;;;;;;;7.73;3.90;;;;;;;10.17;90.32;100779.31;5055474;28;20515;-88
2023/03/18 04:26:01;;;;;;;7.20;4.17;;;;;;;10.18;89.23;100786.22;5061047;28;20458;-87
2023/03/18 04:28:26;;;;;;;8.83;4.03;;;;;;;10.16;90.35;100783.66;5054796;28;20071;-87
2023/03/18 04:30:54;;;;;;;9.27;4.87;;;;;;;10.16;89.43;100782.78;5055180;28;20473;-87
2023/03/18 04:33:20;;;;;;;9.32;4.80;;;;;;;10.16;89.54;100788.84;5055549;28;20078;-87
2023/03/18 04:35:47;;;;;;;7.20;4.30;;;;;;;10.14;93.01;100789.72;5054623;28;20108;-88
2023/03/18 04:38:13;;;;;;;11.18;5.20;;;;;;;10.12;92.80;100791.53;5055302;28;20101;-87
2023/03/18 04:40:38;;;;;;;10.10;5.27;;;;;;;10.12;90.63;100794.94;5055202;28;20454;-88
2023/03/18 04:43:03;;;;;;;9.73;5.10;;;;;;;10.11;90.79;100795.00;5054143;28;20036;-87
2023/03/18 04:45:29;;;;;;;10.30;5.40;;;;;;;10.12;90.43;100789.78;5055132;28;20033;-87
2023/03/18 04:47:54;;;;;;;9.50;5.43;;;;;;;10.14;90.44;100800.97;5054945;28;20052;-87
2023/03/18 04:50:20;;;;;;;9.93;5.50;;;;;;;10.14;90.53;100805.28;5053945;28;20036;-87
2023/03/18 04:52:45;;;;;;;10.77;5.33;;;;;;;10.14;90.76;100798.38;5054594;28;20048;-86
2023/03/18 04:55:16;;;;;;;9.43;5.10;;;;;;;10.13;90.77;100799.25;5054715;28;20408;-87
2023/03/18 04:57:42;;;;;;;11.55;5.30;;;;;;;10.14;91.23;100805.28;5054365;28;20025;-88
2023/03/18 05:00:10;;;;;;;9.93;5.13;;;;;;;10.14;91.33;100805.28;5054433;28;20479;-87
2023/03/18 05:02:36;;;;;;;13.52;6.05;;;;;;;10.12;93.96;100801.91;5054495;28;20029;-87
2023/03/18 05:05:02;;;;;;;12.90;6.32;;;;;;;10.13;93.03;100809.63;5053920;28;20033;-87
2023/03/18 05:07:27;;;;;;;10.57;5.57;;;;;;;10.13;92.67;100814.81;5054649;28;20028;-87
2023/03/18 05:09:53;;;;;;;11.17;5.07;;;;;;;10.09;93.93;100810.53;5054436;28;20108;-86
2023/03/18 05:12:18;;;;;;;8.23;4.50;;;;;;;10.11;93.96;100820.91;5054472;28;20032;-87
2023/03/18 05:14:44;;;;;;;9.33;5.27;;;;;;;10.12;91.96;100822.63;5054534;28;20028;-87
2023/03/18 05:17:14;;;;;;;11.05;5.10;;;;;;;10.11;94.00;100821.75;5054334;28;20074;-87
2023/03/18 05:19:45;;;;;;;11.00;5.25;;;;;;;10.11;91.93;100826.94;5054817;28;20104;-87
2023/03/18 05:22:12;;;;;;;12.50;6.15;;;;;;;10.11;95.21;100815.72;5054170;28;20104;-87
2023/03/18 05:24:37;;;;;;;;;;;;;;;10.10;95.79;100820.03;5053957;28;20025;-87
2023/03/18 05:27:03;;;;;;;10.27;5.25;;;;;;;10.09;96.64;100817.47;5053918;28;20261;-87
2023/03/18 05:29:28;;;;;;;9.50;5.10;;;;;;;10.05;95.62;100820.13;5053851;28;20440;-87
2023/03/18 05:31:53;;;;;;;12.00;5.70;;;;;;;10.03;94.25;100806.31;5053396;28;20431;-87
2023/03/18 05:34:19;;;;;;;13.33;6.20;;;;;;;10.04;96.19;100808.03;5053604;28;20062;-88
2023/03/18 05:36:44;;;;;;;13.07;5.70;;;;;;;9.99;96.98;100812.44;5053813;28;20018;-87
2023/03/18 05:39:10;;;;;;;7.80;4.70;;;;;;;9.97;95.92;100819.38;5053584;28;20106;-87
2023/03/18 05:41:35;;;;;;;8.20;4.50;;;;;;;9.91;95.70;100800.44;5054327;28;20033;-87
2023/03/18 05:44:01;;;;;;;8.57;4.70;;;;;;;9.89;94.57;100810.84;5053572;28;20062;-87
2023/03/18 05:46:27;;;;;;;7.33;3.80;;;;;;;9.86;94.53;100806.53;5052885;28;20023;-87
2023/03/18 05:48:53;;;;;;;8.00;4.43;;;;;;;9.89;93.61;100811.69;5053528;28;20104;-87
2023/03/18 05:51:19;;;;;;;8.30;4.53;;;;;;;9.90;93.62;100830.69;5054186;28;20048;-87
2023/03/18 05:53:44;;;;;;;8.77;4.90;;;;;;;9.90;92.85;100828.09;5052801;28;20461;-87
2023/03/18 05:56:11;;;;;;;11.47;5.40;;;;;;;9.92;92.46;100847.06;5053767;28;20024;-87
2023/03/18 05:58:37;;;;;;;11.52;5.97;;;;;;;9.93;93.13;100847.94;5053771;28;20013;-87
2023/03/18 06:01:02;;;;;;;12.93;6.27;;;;;;;9.94;93.03;100855.69;5053062;28;20039;-87
2023/03/18 06:03:28;;;;;;;12.10;5.97;;;;;;;9.89;93.20;100847.13;5054017;28;20044;-88
2023/03/18 06:05:54;;;;;;;9.50;4.90;;;;;;;9.93;94.73;100855.72;5053095;28;20029;-86
2023/03/18 06:08:19;;;;;;;8.17;4.60;;;;;;;9.92;94.03;100864.38;5052960;28;20377;-87
2023/03/18 06:10:44;;;;;;;8.70;4.60;;;;;;;9.91;94.32;100860.06;5053130;28;20104;-87
2023/03/18 06:13:11;;;;;;;8.33;4.63;;;;;;;9.88;95.64;100859.22;5053121;28;20029;-86
2023/03/18 06:15:37;;;;;;;7.97;4.38;;;;;;;9.89;94.93;100866.13;5053562;28;20108;-87
2023/03/18 06:18:05;;;;;;;7.57;4.38;;;;;;;9.81;95.28;100839.44;5052945;28;20025;-87
2023/03/18 06:23:28;;;;;;;8.77;4.95;;;;;;;9.77;95.08;100829.13;5053882;28;20370;-89
2023/03/18 06:26:03;;;;;;;12.02;5.70;;;;;;;9.79;94.49;100846.38;5054084;28;20523;-89
2023/03/18 06:28:29;;;;;;;11.43;6.05;;;;;;;9.83;95.32;100853.25;5053223;28;20435;-89
2023/03/18 06:30:56;;;;;;;10.63;4.93;;;;;;;9.85;94.29;100854.06;5054013;28;20104;-89
2023/03/18 06:33:22;;;;;;;9.63;5.13;;;;;;;9.86;94.90;100852.34;5053476;28;20025;-89
2023/03/18 06:35:48;;;;;;;9.25;4.57;;;;;;;9.83;94.79;100849.78;5054864;28;20021;-89
2023/03/18 06:38:15;;;;;;;8.80;4.30;;;;;;;9.81;95.11;100859.31;5061797;28;20036;-89
2023/03/18 06:40:41;;;;;;;6.97;4.03;;;;;;;9.80;94.98;100857.59;5061973;28;20039;-89
2023/03/18 06:43:06;;;;;;;7.27;4.10;;;;;;;9.77;95.14;100868.84;5058045;28;20524;-89
2023/03/18 06:45:31;;;;;;;9.70;4.60;;;;;;;9.79;93.84;100874.03;5058310;28;20024;-89
2023/03/18 06:47:57;;;;;;;7.43;4.10;;;;;;;9.82;94.93;100874.84;5058436;28;20354;-90
2023/03/18 06:50:23;;;;;;;9.83;5.20;;;;;;;9.91;96.47;100875.63;5057982;28;20017;-89
2023/03/18 06:52:48;;;;;;;7.50;4.30;;;;;;;10.22;96.77;100876.09;5058099;28;20380;-89
2023/03/18 06:55:14;;;;;;;7.60;4.07;;;;;;;11.12;94.41;100877.38;5057815;28;20112;-89
2023/03/18 06:57:40;;;;;;;5.30;3.40;;;;;;;12.56;95.31;100871.09;5057074;28;20029;-89
2023/03/18 07:00:06;;;;;;;5.68;3.50;;;;;;;13.84;90.30;100880.88;5057010;28;20063;-89
2023/03/18 07:02:32;;;;;;;4.43;3.03;;;;;;;15.18;90.09;100880.28;5056867;28;20065;-89
2023/03/18 07:04:58;;;;;;;5.20;3.40;;;;;;;16.55;81.84;100877.94;5057453;28;20029;-88
2023/03/18 07:07:24;;;;;;;4.75;3.10;;;;;;;17.89;79.09;100895.88;5057216;28;20029;-90
2023/03/18 07:09:49;;;;;;;4.80;3.00;;;;;;;18.90;70.70;100891.22;5056604;28;20112;-89
2023/03/18 07:12:15;;;;;;;4.87;3.20;;;;;;;19.46;70.76;100898.97;5057377;28;20042;-89
2023/03/18 07:14:40;;;;;;;7.60;4.10;;;;;;;19.16;66.31;100904.00;5057341;28;20107;-86
2023/03/18 07:17:09;;;;;;;6.77;4.27;;;;;;;18.29;68.66;100901.13;5055053;28;20033;-87
2023/03/18 07:19:35;;;;;;;8.57;4.57;;;;;;;17.21;70.55;100904.09;5056623;28;20083;-88
2023/03/18 07:22:01;;;;;;;8.93;4.77;;;;;;;16.14;71.80;100904.81;5056506;28;20099;-89
2023/03/18 07:24:27;;;;;;;10.60;4.75;;;;;;;15.34;75.06;100914.59;5055731;28;20107;-82
2023/03/18 07:26:53;;;;;;;7.10;4.40;;;;;;;14.58;77.01;100905.69;5055338;28;20032;-79
2023/03/18 07:29:19;;;;;;;8.90;4.90;;;;;;;14.01;78.66;100918.69;5055673;28;20100;-82
2023/03/18 07:31:44;;;;;;;9.97;5.07;;;;;;;13.53;80.08;100914.75;5054759;28;20033;-82
2023/03/18 07:34:13;;;;;;;9.20;5.00;;;;;;;13.07;81.23;100915.00;5055606;28;20094;-82
2023/03/18 07:36:45;;;;;;;10.40;5.53;;;;;;;12.71;83.24;100911.53;5055652;28;20032;-82
2023/03/18 07:39:11;;;;;;;10.48;5.82;;;;;;;12.43;83.64;100910.41;5054328;28;20025;-82
2023/03/18 07:41:36;;;;;;;11.33;5.50;;;;;;;12.22;84.34;100916.91;5055288;28;20071;-82
2023/03/18 07:44:02;;;;;;;9.23;5.40;;;;;;;12.09;85.80;100926.72;5055160;28;20457;-82
2023/03/18 07:46:28;;;;;;;11.73;6.05;;;;;;;11.94;87.60;100927.00;5054654;28;20064;-82
2023/03/18 07:48:53;;;;;;;11.03;5.90;;;;;;;11.84;88.35;100934.97;5055090;28;20473;-82
2023/03/18 07:51:19;;;;;;;14.40;7.40;;;;;;;11.70;90.09;100931.81;5055348;28;20105;-82
2023/03/18 07:53:44;;;;;;;14.83;7.30;;;;;;;11.63;88.67;100935.38;5054718;28;20021;-81
2023/03/18 07:56:10;;;;;;;11.67;5.83;;;;;;;11.55;88.52;100936.38;5055202;28;20017;-81
2023/03/18 07:58:36;;;;;;;10.50;5.90;;;;;;;11.54;89.12;100934.66;5055114;28;20024;-82
2023/03/18 08:01:01;;;;;;;9.68;5.15;;;;;;;11.56;90.23;100945.91;5053886;28;20025;-82
2023/03/18 08:03:27;;;;;;;9.30;5.33;;;;;;;11.58;89.14;100943.25;5055229;28;20108;-82
2023/03/18 08:05:53;;;;;;;9.23;4.90;;;;;;;11.56;89.75;100938.09;5054018;28;20044;-82
2023/03/18 08:08:20;;;;;;;13.67;6.70;;;;;;;11.60;90.75;100936.31;5054920;28;20366;-81
2023/03/18 08:10:46;;;;;;;13.85;6.90;;;;;;;11.62;91.79;100933.66;5054600;28;20311;-86
2023/03/18 08:13:11;;;;;;;11.10;6.03;;;;;;;11.64;90.19;100924.09;5054225;28;20060;-86
2023/03/18 08:15:37;;;;;;;10.93;5.50;;;;;;;11.71;91.71;100923.09;5054909;28;20025;-86
2023/03/18 08:18:03;;;;;;;8.00;4.50;;;;;;;11.68;91.68;100915.38;5054907;28;20067;-86
2023/03/18 08:20:28;;;;;;;9.33;4.77;;;;;;;11.80;92.06;100925.53;5054433;28;20025;-87
2023/03/18 08:22:54;;;;;;;7.70;4.53;;;;;;;11.85;90.81;100920.25;5053967;28;20219;-86
2023/03/18 08:25:22;;;;;;;7.45;4.43;;;;;;;11.92;89.36;100921.00;5054685;28;20115;-86
2023/03/18 08:27:49;;;;;;;7.68;4.43;;;;;;;11.97;89.77;100920.00;5053768;28;20401;-86
2023/03/18 08:30:15;;;;;;;8.00;4.22;;;;;;;12.08;90.53;100929.38;5055110;28;20033;-87
2023/03/18 08:32:41;;;;;;;8.93;4.80;;;;;;;12.12;92.24;100923.19;5054711;28;20024;-87
2023/03/18 08:35:08;;;;;;;7.53;4.45;;;;;;;12.21;89.90;100925.63;5053468;28;20044;-87
2023/03/18 08:37:35;;;;;;;8.57;4.70;;;;;;;12.26;90.08;100928.97;5054611;28;20037;-87
2023/03/18 08:40:00;;;;;;;;;;;;;;;12.32;90.28;100933.19;5055104;28;20385;-87
2023/03/18 08:42:26;;;;;;;7.50;4.00;;;;;;;12.41;89.23;100933.00;5054251;28;19917;-87
2023/03/18 08:44:52;;;;;;;8.53;4.40;;;;;;;12.52;89.44;100931.03;5054739;28;20542;-87
2023/03/18 08:47:17;;;;;;;9.77;5.17;;;;;;;12.56;87.78;100926.59;5055072;28;20025;-87
2023/03/18 08:49:43;;;;;;;9.10;4.83;;;;;;;12.66;89.68;100933.34;5056692;28;20052;-87
2023/03/18 08:52:09;;;;;;;8.70;4.60;;;;;;;12.79;88.36;100941.72;5055207;28;20017;-87
2023/03/18 08:54:34;;;;;;;8.37;4.77;;;;;;;12.87;87.96;100940.66;5056083;28;20495;-87
2023/03/18 08:57:00;;;;;;;9.80;5.13;;;;;;;12.99;87.11;100940.38;5054894;28;20311;-87
2023/03/18 08:59:25;;;;;;;9.77;5.30;;;;;;;13.19;85.61;100941.66;5054063;28;20033;-87
2023/03/18 09:01:52;;;;;;;12.40;6.37;;;;;;;13.13;85.88;100938.31;5054174;28;20036;-87
2023/03/18 09:04:17;;;;;;;10.13;5.40;;;;;;;13.11;86.97;100945.31;5051672;28;20549;-86
2023/03/18 09:06:42;;;;;;;10.90;5.43;;;;;;;13.12;87.02;100934.00;5042720;28;20040;-87
2023/03/18 09:09:08;;;;;;;9.10;4.30;;;;;;;13.24;87.33;100947.63;5053442;28;20370;-86
2023/03/18 09:11:33;;;;;;;14.17;4.97;;;;;;;13.35;87.97;100945.59;5044969;28;20477;-86
2023/03/18 09:14:00;;;;;;;10.77;4.83;;;;;;;13.43;86.93;100942.84;5052274;28;20036;-86
2023/03/18 09:16:27;;;;;;;8.80;4.50;;;;;;;13.54;86.34;100942.53;5051305;28;20051;-87
2023/03/18 09:18:53;;;;;;;6.28;3.80;;;;;;;13.66;86.00;100952.66;5053114;28;20072;-86
2023/03/18 09:21:18;;;;;;;7.83;3.97;;;;;;;13.78;84.94;100954.09;5052463;28;20053;-86
2023/03/18 09:23:44;;;;;;;7.67;4.13;;;;;;;13.83;85.05;100956.56;5052669;28;20040;-86
2023/03/18 09:26:10;;;;;;;7.07;4.20;;;;;;;13.88;85.56;100952.06;5054444;28;20401;-86
2023/03/18 09:28:36;;;;;;;6.03;3.70;;;;;;;13.93;85.05;100954.53;5053985;28;20521;-84
2023/03/18 09:31:01;;;;;;;5.90;3.67;;;;;;;13.95;84.58;100953.63;5053615;28;20040;-89
2023/03/18 09:33:26;;;;;;;7.53;3.60;;;;;;;14.01;84.81;100963.88;5054079;28;20021;-93
2023/03/18 09:35:52;;;;;;;6.23;3.50;;;;;;;14.02;84.33;100960.38;5054362;28;20025;-88
2023/03/18 09:38:27;;;;;;;4.40;3.00;;;;;;;14.04;84.18;100963.81;5053756;28;20055;-88
2023/03/18 09:41:11;;;;;;;5.43;3.08;;;;;;;14.13;83.96;100965.28;5054579;28;20410;-89
2023/03/18 09:43:45;;;;;;;5.30;3.20;;;;;;;14.24;83.57;100959.78;5055099;28;20051;-89
2023/03/18 09:46:41;;;;;;;7.15;3.40;;;;;;;14.43;82.34;100960.09;5054298;28;20025;-89
2023/03/18 09:49:22;;;;;;;4.97;3.35;;;;;;;14.55;82.01;100951.03;5054776;28;20040;-88
2023/03/18 09:52:05;;;;;;;5.68;3.50;;;;;;;14.72;82.44;100955.78;5053137;28;20021;-88
2023/03/18 09:54:44;;;;;;;5.85;3.50;;;;;;;14.97;82.61;100949.78;5054046;28;20041;-88
2023/03/18 09:57:18;;;;;;;6.93;3.60;;;;;;;15.14;81.74;100947.47;5054338;28;20025;-88
2023/03/18 09:59:49;;;;;;;5.47;3.20;;;;;;;15.32;80.15;100955.63;5053898;28;20028;-88
2023/03/18 10:02:26;;;;;;;5.40;3.08;;;;;;;15.43;79.48;100952.63;5054412;28;20024;-88
2023/03/18 10:04:56;;;;;;;4.57;3.08;;;;;;;15.51;80.27;100948.00;5053501;28;20107;-88
2023/03/18 10:07:27;;;;;;;3.45;2.70;;;;;;;15.67;79.81;100944.84;5053432;28;20025;-91
2023/03/18 10:10:09;;;;;;;6.82;3.20;;;;;;;15.81;76.89;100936.53;5053588;28;20025;-86
2023/03/18 10:12:47;;;;;;;5.38;2.85;;;;;;;15.92;78.52;100944.88;5052126;28;20079;-85
2023/03/18 10:15:37;;;;;;;3.80;2.78;;;;;;;16.00;78.16;100948.06;5053001;28;20044;-88
2023/03/18 10:18:28;;;;;;;4.30;2.83;;;;;;;16.11;76.69;100955.50;5053136;28;20086;-86
2023/03/18 10:21:19;;;;;;;5.18;3.00;;;;;;;16.23;75.89;100959.44;5051918;28;20017;-86
2023/03/18 10:23:56;;;;;;;4.22;2.85;;;;;;;16.36;75.60;100965.06;5052482;28;20031;-85
2023/03/18 10:26:40;;;;;;;6.07;2.97;;;;;;;16.47;74.87;100955.03;5052243;28;20103;-82
2023/03/18 10:29:20;;;;;;;7.63;3.13;;;;;;;16.63;74.24;100951.84;5052561;28;20045;-86
2023/03/18 10:31:56;;;;;;;3.67;2.50;;;;;;;16.78;73.09;100961.72;5052472;28;20100;-84
2023/03/18 10:34:26;;;;;;;2.90;2.20;;;;;;;16.74;71.51;100959.28;5052070;28;20564;-83
2023/03/18 10:37:05;;;;;;;2.67;2.20;;;;;;;16.61;73.68;100954.50;5052339;28;20072;-85
2023/03/18 10:39:34;;;;;;;2.72;2.00;;;;;;;16.52;73.43;100957.47;5053213;28;20049;-88
2023/03/18 10:42:11;;;;;;;2.25;2.00;;;;;;;16.52;73.05;100955.75;5051520;28;20029;-86
2023/03/18 10:44:40;;;;;;;2.60;2.03;;;;;;;16.54;72.71;100957.44;5053086;28;20082;-87
2023/03/18 10:47:17;;;;;;;1.90;1.70;;;;;;;16.58;71.03;100957.28;5052295;28;20060;-86
2023/03/18 10:49:49;;;;;;;2.90;2.17;;;;;;;16.68;72.54;100956.00;5052162;28;20033;-86
2023/03/18 10:52:22;;;;;;;3.40;2.10;;;;;;;16.80;72.93;100949.41;5053064;28;20384;-86
2023/03/18 10:54:51;;;;;;;3.33;2.35;;;;;;;16.85;69.44;100943.13;5051493;28;20038;-86
2023/03/18 10:57:18;;;;;;;3.70;2.05;;;;;;;16.79;70.87;100933.75;5052158;28;20021;-83
2023/03/18 10:59:44;;;;;;;2.33;1.80;;;;;;;16.75;70.23;100935.66;5052732;28;20029;-87
2023/03/18 11:02:32;;;;;;;2.78;1.85;;;;;;;16.75;71.85;100943.50;5052639;28;20075;-82
2023/03/18 11:05:30;;;;;;;5.28;2.10;;;;;;;16.64;71.00;100943.91;5052827;28;20017;-87
2023/03/18 11:07:58;;;;;;;1.58;1.48;;;;;;;16.57;72.00;100942.47;5046422;28;20086;-93
2023/03/18 11:10:27;;;;;;;2.00;1.45;;;;;;;16.51;71.49;100932.19;5053432;28;20029;-93
2023/03/18 11:12:57;;;;;;;2.78;1.83;;;;;;;16.43;71.73;100940.38;5053160;28;20044;-89
2023/03/18 11:15:23;;;;;;;2.15;1.70;;;;;;;16.39;72.01;100937.91;5053057;28;20029;-92
2023/03/18 11:17:50;;;;;;;1.52;1.42;;;;;;;16.33;71.10;100942.47;5052680;28;20032;-93
2023/03/18 11:20:32;;;;;;;2.80;1.65;;;;;;;16.32;71.76;100942.56;5053624;28;20032;-91
2023/03/18 11:23:12;;;;;;;1.88;1.60;;;;;;;16.33;71.02;100941.63;5056659;28;20556;-92
2023/03/18 11:25:39;;;;;;;2.50;1.90;;;;;;;16.21;69.99;100933.31;5057922;28;20159;-93
2023/03/18 11:28:17;;;;;;;2.72;1.60;;;;;;;16.17;71.13;100939.59;5057048;28;20497;-87
2023/03/18 11:30:47;;;;;;;4.60;2.03;;;;;;;16.17;71.16;100950.06;5054742;28;20021;-81
2023/03/18 11:33:14;;;;;;;3.47;2.00;;;;;;;16.12;70.81;100957.22;5055773;28;20025;-80